Time;durP1;ratioP1;P1;durP2;ratioP2;P2;SDS_P1;SDS_P2;PMS_P1;PMS_P2;Temp;Humidity;BMP_temperature;BMP_pressure;BME280_temperature;BME280_humidity;BME280_pressure;Samples;Min_cycle;Max_cycle;Signal;HPM_P1;HPM_P2
2023/05/06 00:01:20;;;;;;;4.10;3.70;;;;;;;;;;5095692;28;20455;-72
2023/05/06 00:03:47;;;;;;;7.17;3.63;;;;;;;;;;5095304;28;20479;-72
2023/05/06 00:06:14;;;;;;;4.20;3.40;;;;;;;;;;5095639;28;20469;-72
2023/05/06 00:08:41;;;;;;;6.70;3.70;;;;;;;;;;5095452;28;20577;-72
2023/05/06 00:11:08;;;;;;;4.83;3.40;;;;;;;;;;5095737;28;20466;-72
2023/05/06 00:13:37;;;;;;;4.70;3.80;;;;;;;;;;5095275;28;20478;-72
2023/05/06 00:16:04;;;;;;;6.60;4.73;;;;;;;;;;5095669;28;20485;-72
2023/05/06 00:18:31;;;;;;;7.37;4.27;;;;;;;;;;5095541;28;20498;-72
2023/05/06 00:20:58;;;;;;;5.17;3.57;;;;;;;;;;5095521;28;20960;-72
2023/05/06 00:23:25;;;;;;;5.77;4.57;;;;;;;;;;5094531;28;20497;-72
2023/05/06 00:25:54;;;;;;;3.87;3.27;;;;;;;;;;5095381;28;20975;-72
2023/05/06 00:28:21;;;;;;;4.77;4.33;;;;;;;;;;5095069;28;20505;-72
2023/05/06 00:30:49;;;;;;;4.33;3.93;;;;;;;;;;5095275;28;20459;-72
2023/05/06 00:33:16;;;;;;;5.63;3.80;;;;;;;;;;5095009;28;20478;-72
2023/05/06 00:35:43;;;;;;;4.40;3.60;;;;;;;;;;5094876;28;20446;-72
2023/05/06 00:38:11;;;;;;;7.30;4.70;;;;;;;;;;5095163;28;20446;-72
2023/05/06 00:40:38;;;;;;;4.10;3.73;;;;;;;;;;5095208;28;20994;-72
2023/05/06 00:43:06;;;;;;;4.97;4.47;;;;;;;;;;5094857;28;20474;-72
2023/05/06 00:45:33;;;;;;;10.53;3.97;;;;;;;;;;5094670;28;20462;-72
2023/05/06 00:48:01;;;;;;;6.10;3.90;;;;;;;;;;5094886;28;20459;-72
2023/05/06 00:50:31;;;;;;;6.20;4.00;;;;;;;;;;5094904;28;20455;-71
2023/05/06 00:52:58;;;;;;;8.47;4.43;;;;;;;;;;5094709;28;20577;-72
2023/05/06 00:55:26;;;;;;;4.90;3.90;;;;;;;;;;5094540;28;20457;-72
2023/05/06 00:57:53;;;;;;;6.77;5.03;;;;;;;;;;5094747;28;20454;-72
2023/05/06 01:00:20;;;;;;;6.33;4.20;;;;;;;;;;5094677;28;20454;-72
2023/05/06 01:02:48;;;;;;;4.40;3.90;;;;;;;;;;5094522;28;20991;-72
2023/05/06 01:05:17;;;;;;;5.00;4.40;;;;;;;;;;5094272;28;20467;-72
2023/05/06 01:07:48;;;;;;;5.30;4.30;;;;;;;;;;5094823;28;20502;-72
2023/05/06 01:10:19;;;;;;;4.73;4.13;;;;;;;;;;5094284;28;20491;-72
2023/05/06 01:12:51;;;;;;;6.03;5.20;;;;;;;;;;5094255;28;20479;-72
2023/05/06 01:15:21;;;;;;;7.30;6.03;;;;;;;;;;5094193;28;20459;-72
2023/05/06 01:17:50;;;;;;;7.43;4.77;;;;;;;;;;5094524;28;20454;-72
2023/05/06 01:20:21;;;;;;;5.63;4.30;;;;;;;;;;5094223;28;20959;-72
2023/05/06 01:22:49;;;;;;;5.50;4.33;;;;;;;;;;5093725;28;20477;-72
2023/05/06 01:25:21;;;;;;;4.97;4.00;;;;;;;;;;5093962;28;20479;-72
2023/05/06 01:27:48;;;;;;;5.60;4.40;;;;;;;;;;5094137;28;20451;-72
2023/05/06 01:30:16;;;;;;;6.00;4.60;;;;;;;;;;5094050;28;20490;-72
2023/05/06 01:32:48;;;;;;;6.80;4.30;;;;;;;;;;5094164;28;20493;-72
2023/05/06 01:35:17;;;;;;;6.10;4.93;;;;;;;;;;5093728;28;20454;-72
2023/05/06 01:37:47;;;;;;;8.43;4.57;;;;;;;;;;5093883;28;20455;-72
2023/05/06 01:40:15;;;;;;;8.63;4.47;;;;;;;;;;5093877;28;20450;-72
2023/05/06 01:42:47;;;;;;;6.47;5.47;;;;;;;;;;5094029;28;20471;-72
2023/05/06 01:45:15;;;;;;;7.43;4.90;;;;;;;;;;5093354;28;20469;-72
2023/05/06 01:47:42;;;;;;;5.47;4.87;;;;;;;;;;5093468;28;20494;-72
2023/05/06 01:50:10;;;;;;;6.13;5.53;;;;;;;;;;5093780;28;20493;-72
2023/05/06 01:52:37;;;;;;;9.33;6.87;;;;;;;;;;5093510;28;20474;-72
2023/05/06 01:55:04;;;;;;;7.60;5.07;;;;;;;;;;5093314;28;20451;-72
2023/05/06 01:57:32;;;;;;;10.63;5.20;;;;;;;;;;5093497;28;20994;-72
2023/05/06 02:00:00;;;;;;;8.23;6.13;;;;;;;;;;5093654;28;20447;-72
2023/05/06 02:02:27;;;;;;;5.87;5.30;;;;;;;;;;5093279;28;20473;-72
2023/05/06 02:04:54;;;;;;;7.90;5.47;;;;;;;;;;5093323;28;20997;-72
2023/05/06 02:07:21;;;;;;;9.20;5.90;;;;;;;;;;5093318;28;20458;-72
2023/05/06 02:09:48;;;;;;;8.33;6.93;;;;;;;;;;5093291;28;20543;-69
2023/05/06 02:12:15;;;;;;;8.73;6.10;;;;;;;;;;5093270;28;20482;-69
2023/05/06 02:14:42;;;;;;;9.23;6.47;;;;;;;;;;5092945;28;20455;-69
2023/05/06 02:17:11;;;;;;;7.80;5.60;;;;;;;;;;5093430;28;20458;-69
2023/05/06 02:19:38;;;;;;;8.47;5.70;;;;;;;;;;5093228;28;20488;-69
2023/05/06 02:22:05;;;;;;;9.43;6.13;;;;;;;;;;5092462;28;20548;-72
2023/05/06 02:24:32;;;;;;;6.50;5.63;;;;;;;;;;5092984;28;20854;-72
2023/05/06 02:27:01;;;;;;;9.43;7.40;;;;;;;;;;5093299;28;20530;-72
2023/05/06 02:29:28;;;;;;;7.07;5.40;;;;;;;;;;5093106;28;20991;-72
2023/05/06 02:31:55;;;;;;;8.23;5.90;;;;;;;;;;5093127;28;20804;-72
2023/05/06 02:34:24;;;;;;;7.10;6.40;;;;;;;;;;5092863;28;20489;-72
2023/05/06 02:36:51;;;;;;;8.10;6.57;;;;;;;;;;5093036;28;20450;-72
2023/05/06 02:39:18;;;;;;;7.80;6.70;;;;;;;;;;5093217;28;20438;-72
2023/05/06 02:41:45;;;;;;;6.40;5.70;;;;;;;;;;5092952;28;20455;-72
2023/05/06 02:44:12;;;;;;;7.27;6.30;;;;;;;;;;5092741;28;20451;-72
2023/05/06 02:46:39;;;;;;;6.60;6.00;;;;;;;;;;5092878;28;20463;-72
2023/05/06 02:49:06;;;;;;;7.10;6.07;;;;;;;;;;5092956;28;20496;-72
2023/05/06 02:51:35;;;;;;;8.63;7.23;;;;;;;;;;5092783;28;20446;-72
2023/05/06 02:54:02;;;;;;;7.00;6.40;;;;;;;;;;5092635;28;21012;-72
2023/05/06 02:56:30;;;;;;;7.13;5.40;;;;;;;;;;5092730;28;20463;-72
2023/05/06 02:58:57;;;;;;;7.97;6.47;;;;;;;;;;5095259;28;20453;-72
2023/05/06 03:01:24;;;;;;;5.80;4.80;;;;;;;;;;5096978;28;20450;-72
2023/05/06 03:03:51;;;;;;;6.60;6.00;;;;;;;;;;5096909;28;20466;-69
2023/05/06 03:06:19;;;;;;;9.60;7.30;;;;;;;;;;5096942;28;20453;-69
2023/05/06 03:08:47;;;;;;;6.73;5.30;;;;;;;;;;5097014;28;20454;-69
2023/05/06 03:11:14;;;;;;;7.30;6.60;;;;;;;;;;5096727;28;20458;-69
2023/05/06 03:13:41;;;;;;;6.93;6.23;;;;;;;;;;5096645;28;20839;-69
2023/05/06 03:16:13;;;;;;;6.97;6.27;;;;;;;;;;5096703;28;20852;-69
2023/05/06 03:18:40;;;;;;;13.93;6.13;;;;;;;;;;5096784;28;20501;-69
2023/05/06 03:21:07;;;;;;;7.60;6.03;;;;;;;;;;5096682;28;20477;-69
2023/05/06 03:23:34;;;;;;;9.00;6.27;;;;;;;;;;5095869;28;20474;-70
2023/05/06 03:26:03;;;;;;;6.43;5.60;;;;;;;;;;5096556;28;20454;-69
2023/05/06 03:28:30;;;;;;;6.47;5.67;;;;;;;;;;5096500;28;20463;-71
2023/05/06 03:30:57;;;;;;;5.97;5.37;;;;;;;;;;5096235;28;20492;-72
2023/05/06 03:33:24;;;;;;;7.10;5.73;;;;;;;;;;5096353;28;20478;-72
2023/05/06 03:35:51;;;;;;;6.50;5.90;;;;;;;;;;5096277;28;20549;-72
2023/05/06 03:38:18;;;;;;;7.20;6.50;;;;;;;;;;5096388;28;20473;-72
2023/05/06 03:40:45;;;;;;;5.63;5.00;;;;;;;;;;5096471;28;20442;-72
2023/05/06 03:43:14;;;;;;;6.70;6.00;;;;;;;;;;5096016;28;20467;-72
2023/05/06 03:45:41;;;;;;;8.50;6.63;;;;;;;;;;5095934;28;21084;-72
2023/05/06 03:48:08;;;;;;;7.40;6.33;;;;;;;;;;5096181;28;20493;-72
2023/05/06 03:50:36;;;;;;;12.23;6.10;;;;;;;;;;5095860;28;20486;-72
2023/05/06 03:53:03;;;;;;;7.00;6.30;;;;;;;;;;5095922;28;20475;-72
2023/05/06 03:55:30;;;;;;;7.87;5.90;;;;;;;;;;5095779;28;20450;-69
2023/05/06 03:57:57;;;;;;;7.90;7.00;;;;;;;;;;5096065;28;20450;-69
2023/05/06 04:00:25;;;;;;;9.20;7.07;;;;;;;;;;5095739;28;20451;-69
2023/05/06 04:02:52;;;;;;;7.80;6.10;;;;;;;;;;5095970;28;20975;-69
2023/05/06 04:05:20;;;;;;;7.47;5.67;;;;;;;;;;5095537;28;20921;-69
2023/05/06 04:07:47;;;;;;;13.47;6.67;;;;;;;;;;5095873;28;20662;-69
2023/05/06 04:10:14;;;;;;;9.80;6.93;;;;;;;;;;5095026;28;20489;-69
2023/05/06 04:12:41;;;;;;;10.27;8.90;;;;;;;;;;5095552;28;20478;-69
2023/05/06 04:15:09;;;;;;;7.27;6.57;;;;;;;;;;5095436;28;20451;-70
2023/05/06 04:17:37;;;;;;;6.30;5.70;;;;;;;;;;5095568;28;20532;-69
2023/05/06 04:20:06;;;;;;;7.80;6.63;;;;;;;;;;5095523;28;20447;-69
2023/05/06 04:22:33;;;;;;;7.00;6.30;;;;;;;;;;5094960;28;20475;-69
2023/05/06 04:25:00;;;;;;;6.23;5.60;;;;;;;;;;5095396;28;20979;-69
2023/05/06 04:27:28;;;;;;;8.67;4.60;;;;;;;;;;5095498;28;20494;-71
2023/05/06 04:29:55;;;;;;;6.17;5.57;;;;;;;;;;5095355;28;20859;-72
2023/05/06 04:32:23;;;;;;;7.60;6.37;;;;;;;;;;5095054;28;20527;-72
2023/05/06 04:34:52;;;;;;;7.07;6.37;;;;;;;;;;5095001;28;20462;-72
2023/05/06 04:37:19;;;;;;;8.17;4.90;;;;;;;;;;5095153;28;20866;-72
2023/05/06 04:39:47;;;;;;;5.00;3.47;;;;;;;;;;5095151;28;21038;-72
2023/05/06 04:42:14;;;;;;;5.10;4.23;;;;;;;;;;5094940;28;20506;-72
2023/05/06 04:44:42;;;;;;;4.37;3.63;;;;;;;;;;5094832;28;20541;-72
2023/05/06 04:47:09;;;;;;;7.77;5.23;;;;;;;;;;5094931;28;20466;-72
2023/05/06 04:49:36;;;;;;;5.40;4.57;;;;;;;;;;5094813;28;20490;-72
2023/05/06 04:52:05;;;;;;;6.80;3.80;;;;;;;;;;5094894;28;20474;-72
2023/05/06 04:54:32;;;;;;;4.03;3.70;;;;;;;;;;5094532;28;20461;-72
2023/05/06 04:56:59;;;;;;;4.33;3.93;;;;;;;;;;5094756;28;20454;-72
2023/05/06 04:59:26;;;;;;;3.07;2.77;;;;;;;;;;5094638;28;20493;-72
2023/05/06 05:01:53;;;;;;;4.30;3.70;;;;;;;;;;5094679;28;20451;-72
2023/05/06 05:04:20;;;;;;;5.27;4.17;;;;;;;;;;5094430;28;20504;-72
2023/05/06 05:06:48;;;;;;;4.33;3.80;;;;;;;;;;5094712;28;20458;-72
2023/05/06 05:09:16;;;;;;;7.07;6.13;;;;;;;;;;5094517;28;20658;-72
2023/05/06 05:11:43;;;;;;;5.33;3.90;;;;;;;;;;5094327;28;20826;-72
2023/05/06 05:14:10;;;;;;;2.97;2.50;;;;;;;;;;5094388;28;20450;-72
2023/05/06 05:16:37;;;;;;;7.90;3.60;;;;;;;;;;5094511;28;20458;-72
2023/05/06 05:19:05;;;;;;;3.77;2.80;;;;;;;;;;5094476;28;20450;-72
2023/05/06 05:21:32;;;;;;;4.10;3.00;;;;;;;;;;5093251;28;20588;-72
2023/05/06 05:23:59;;;;;;;5.10;3.33;;;;;;;;;;5093507;28;20470;-72
2023/05/06 05:26:27;;;;;;;3.73;3.40;;;;;;;;;;5094161;28;20455;-72
2023/05/06 05:28:54;;;;;;;5.87;4.07;;;;;;;;;;5094266;28;20453;-72
2023/05/06 05:31:22;;;;;;;6.30;5.70;;;;;;;;;;5094097;28;20493;-72
2023/05/06 05:33:49;;;;;;;5.67;4.93;;;;;;;;;;5093869;28;20470;-72
2023/05/06 05:36:16;;;;;;;3.40;3.10;;;;;;;;;;5094091;28;20446;-72
2023/05/06 05:38:43;;;;;;;3.57;3.20;;;;;;;;;;5094133;28;20461;-72
2023/05/06 05:41:10;;;;;;;3.07;2.77;;;;;;;;;;5093964;28;20949;-72
2023/05/06 05:43:39;;;;;;;3.30;2.67;;;;;;;;;;5093776;28;20896;-72
2023/05/06 05:46:06;;;;;;;4.83;2.60;;;;;;;;;;5093725;28;20537;-72
2023/05/06 05:48:33;;;;;;;3.20;2.37;;;;;;;;;;5093756;28;20458;-72
2023/05/06 05:51:01;;;;;;;3.57;2.27;;;;;;;;;;5093795;28;20539;-72
2023/05/06 05:53:28;;;;;;;2.27;2.07;;;;;;;;;;5093368;28;20539;-73
2023/05/06 05:55:55;;;;;;;3.80;2.47;;;;;;;;;;5093621;28;20455;-73
2023/05/06 05:58:22;;;;;;;2.40;2.17;;;;;;;;;;5093663;28;20451;-73
2023/05/06 06:00:51;;;;;;;5.10;3.53;;;;;;;;;;5093829;28;20446;-73
2023/05/06 06:03:18;;;;;;;2.67;2.47;;;;;;;;;;5093550;28;20479;-73
2023/05/06 06:05:45;;;;;;;5.50;2.00;;;;;;;;;;5093329;28;20508;-73
2023/05/06 06:08:12;;;;;;;4.20;2.40;;;;;;;;;;5093386;28;20462;-73
2023/05/06 06:10:40;;;;;;;2.57;2.17;;;;;;;;;;5093345;28;20483;-73
2023/05/06 06:13:07;;;;;;;2.63;2.43;;;;;;;;;;5093441;28;20839;-73
2023/05/06 06:15:34;;;;;;;2.97;2.50;;;;;;;;;;5093203;28;20450;-73
2023/05/06 06:18:03;;;;;;;5.73;2.50;;;;;;;;;;5093370;28;20450;-73
2023/05/06 06:20:30;;;;;;;2.57;2.37;;;;;;;;;;5093165;28;20830;-73
2023/05/06 06:22:57;;;;;;;5.70;2.53;;;;;;;;;;5092794;28;20466;-72
2023/05/06 06:25:24;;;;;;;4.83;3.67;;;;;;;;;;5093055;28;20454;-73
2023/05/06 06:27:51;;;;;;;4.50;3.27;;;;;;;;;;5093380;28;20457;-73
2023/05/06 06:30:18;;;;;;;8.63;3.33;;;;;;;;;;5093042;28;21029;-73
2023/05/06 06:32:49;;;;;;;4.17;3.77;;;;;;;;;;5092826;28;20561;-73
2023/05/06 06:35:18;;;;;;;4.63;2.80;;;;;;;;;;5092801;28;20460;-73
2023/05/06 06:37:46;;;;;;;4.23;3.40;;;;;;;;;;5092997;28;20489;-73
2023/05/06 06:40:13;;;;;;;5.67;3.50;;;;;;;;;;5093064;28;20935;-73
2023/05/06 06:42:40;;;;;;;8.13;3.87;;;;;;;;;;5092900;28;20475;-73
2023/05/06 06:45:08;;;;;;;6.63;4.00;;;;;;;;;;5092764;28;20473;-72
2023/05/06 06:47:35;;;;;;;3.63;3.17;;;;;;;;;;5093002;28;20450;-72
2023/05/06 06:50:02;;;;;;;7.70;6.03;;;;;;;;;;5092868;28;20928;-73
2023/05/06 06:52:31;;;;;;;3.70;3.40;;;;;;;;;;5092952;28;20510;-73
2023/05/06 06:54:58;;;;;;;4.57;3.30;;;;;;;;;;5092601;28;20455;-72
2023/05/06 06:57:25;;;;;;;4.87;3.77;;;;;;;;;;5092878;28;20454;-73
2023/05/06 06:59:52;;;;;;;4.10;3.70;;;;;;;;;;5092913;28;20455;-73
2023/05/06 07:02:19;;;;;;;5.70;5.20;;;;;;;;;;5092623;28;20557;-73
2023/05/06 07:04:46;;;;;;;4.00;3.33;;;;;;;;;;5092693;28;20454;-73
2023/05/06 07:07:14;;;;;;;4.53;3.80;;;;;;;;;;5092912;28;20457;-73
2023/05/06 07:09:43;;;;;;;4.13;3.73;;;;;;;;;;5092737;28;20450;-73
2023/05/06 07:12:10;;;;;;;3.53;3.23;;;;;;;;;;5092782;28;20494;-73
2023/05/06 07:14:38;;;;;;;5.73;4.17;;;;;;;;;;5092705;28;20451;-73
2023/05/06 07:17:05;;;;;;;4.33;3.70;;;;;;;;;;5092779;28;20857;-73
2023/05/06 07:19:32;;;;;;;6.00;4.20;;;;;;;;;;5092840;28;20443;-73
2023/05/06 07:21:59;;;;;;;7.73;3.43;;;;;;;;;;5092085;28;20442;-73
2023/05/06 07:24:26;;;;;;;10.10;3.43;;;;;;;;;;5092452;28;20484;-73
2023/05/06 07:26:54;;;;;;;5.93;3.83;;;;;;;;;;5092584;28;20455;-73
2023/05/06 07:29:21;;;;;;;7.80;4.30;;;;;;;;;;5092622;28;20878;-73
2023/05/06 07:31:49;;;;;;;5.47;4.47;;;;;;;;;;5092596;28;20490;-73
2023/05/06 07:34:16;;;;;;;8.37;6.40;;;;;;;;;;5092364;28;20446;-73
2023/05/06 07:36:43;;;;;;;5.57;5.07;;;;;;;;;;5092733;28;20454;-73
2023/05/06 07:39:11;;;;;;;5.57;5.07;;;;;;;;;;5092456;28;20516;-73
2023/05/06 07:41:38;;;;;;;5.40;4.90;;;;;;;;;;5092573;28;20995;-73
2023/05/06 07:44:07;;;;;;;8.73;4.33;;;;;;;;;;5092981;28;20478;-73
2023/05/06 07:46:34;;;;;;;6.67;4.17;;;;;;;;;;5096071;28;20463;-73
2023/05/06 07:49:01;;;;;;;7.83;4.30;;;;;;;;;;5096406;28;20453;-73
2023/05/06 07:51:28;;;;;;;4.90;4.40;;;;;;;;;;5095915;28;20497;-73
2023/05/06 07:53:55;;;;;;;4.90;4.10;;;;;;;;;;5095868;28;20477;-73
2023/05/06 07:56:22;;;;;;;4.07;3.77;;;;;;;;;;5095924;28;20974;-73
2023/05/06 07:58:49;;;;;;;5.20;4.70;;;;;;;;;;5095990;28;20823;-73
2023/05/06 08:01:18;;;;;;;6.20;5.70;;;;;;;;;;5096027;28;20473;-73
2023/05/06 08:03:45;;;;;;;4.77;3.77;;;;;;;;;;5095617;28;20490;-73
2023/05/06 08:06:12;;;;;;;4.00;3.60;;;;;;;;;;5095763;28;20443;-73
2023/05/06 08:08:39;;;;;;;4.17;3.77;;;;;;;;;;5095950;28;20458;-73
2023/05/06 08:11:06;;;;;;;4.27;3.70;;;;;;;;;;5095735;28;20863;-73
2023/05/06 08:13:33;;;;;;;4.07;3.67;;;;;;;;;;5095351;28;20487;-73
2023/05/06 08:16:01;;;;;;;4.40;4.00;;;;;;;;;;5095769;28;20470;-73
2023/05/06 08:18:29;;;;;;;5.07;4.07;;;;;;;;;;5095403;28;20512;-73
2023/05/06 08:20:56;;;;;;;4.70;2.77;;;;;;;;;;5095731;28;20821;-73
2023/05/06 08:23:23;;;;;;;3.83;3.00;;;;;;;;;;5094896;28;20475;-73
2023/05/06 08:25:50;;;;;;;3.70;3.40;;;;;;;;;;5095351;28;20451;-73
2023/05/06 08:28:17;;;;;;;3.17;2.87;;;;;;;;;;5095518;28;20461;-73
2023/05/06 08:30:47;;;;;;;4.33;3.60;;;;;;;;;;5095427;28;20485;-73
2023/05/06 08:33:14;;;;;;;4.33;3.93;;;;;;;;;;5095162;28;20483;-73
2023/05/06 08:35:43;;;;;;;4.70;4.20;;;;;;;;;;5095115;28;20515;-73
2023/05/06 08:38:10;;;;;;;4.57;3.87;;;;;;;;;;5095180;28;20450;-73
2023/05/06 08:40:42;;;;;;;3.90;3.40;;;;;;;;;;5095173;28;20454;-73
2023/05/06 08:43:12;;;;;;;5.30;3.73;;;;;;;;;;5095062;28;20471;-73
2023/05/06 08:45:39;;;;;;;6.33;4.63;;;;;;;;;;5094697;28;20473;-73
2023/05/06 08:48:07;;;;;;;4.87;3.53;;;;;;;;;;5095089;28;20450;-73
2023/05/06 08:50:38;;;;;;;3.67;3.03;;;;;;;;;;5094896;28;20459;-73
2023/05/06 08:53:07;;;;;;;4.17;3.77;;;;;;;;;;5095013;28;20986;-73
2023/05/06 08:55:35;;;;;;;3.57;3.27;;;;;;;;;;5094553;28;20851;-73
2023/05/06 08:58:02;;;;;;;6.43;4.27;;;;;;;;;;5095018;28;20928;-73
2023/05/06 09:00:29;;;;;;;4.80;4.30;;;;;;;;;;5094706;28;20492;-73
2023/05/06 09:02:56;;;;;;;4.87;4.47;;;;;;;;;;5094613;28;21006;-73
2023/05/06 09:05:23;;;;;;;6.20;5.60;;;;;;;;;;5094307;28;20459;-73
2023/05/06 09:07:51;;;;;;;5.87;5.07;;;;;;;;;;5094543;28;20459;-73
2023/05/06 09:10:19;;;;;;;7.97;6.47;;;;;;;;;;5094350;28;20947;-73
2023/05/06 09:12:47;;;;;;;4.53;4.13;;;;;;;;;;5094300;28;20501;-73
2023/05/06 09:15:14;;;;;;;5.87;4.37;;;;;;;;;;5094285;28;20453;-73
2023/05/06 09:17:41;;;;;;;5.77;4.60;;;;;;;;;;5094389;28;20461;-73
2023/05/06 09:20:12;;;;;;;6.90;4.60;;;;;;;;;;5094474;28;21025;-73
2023/05/06 09:22:39;;;;;;;5.67;4.97;;;;;;;;;;5093747;28;20473;-73
2023/05/06 09:25:08;;;;;;;5.50;5.00;;;;;;;;;;5094205;28;20486;-73
2023/05/06 09:27:36;;;;;;;5.63;5.13;;;;;;;;;;5094170;28;20461;-73
2023/05/06 09:30:04;;;;;;;6.63;4.40;;;;;;;;;;5094231;28;20447;-73
2023/05/06 09:32:32;;;;;;;5.20;4.13;;;;;;;;;;5094083;28;20531;-73
2023/05/06 09:34:59;;;;;;;5.00;3.63;;;;;;;;;;5094020;28;20454;-73
2023/05/06 09:37:26;;;;;;;4.83;4.10;;;;;;;;;;5093984;28;20455;-73
2023/05/06 09:39:54;;;;;;;5.47;4.90;;;;;;;;;;5093959;28;20458;-73
2023/05/06 09:42:22;;;;;;;5.40;4.60;;;;;;;;;;5093912;28;20463;-74
2023/05/06 09:44:51;;;;;;;5.33;4.53;;;;;;;;;;5093674;28;20462;-73
2023/05/06 09:47:18;;;;;;;4.23;3.73;;;;;;;;;;5093888;28;20454;-73
2023/05/06 09:49:45;;;;;;;5.30;4.20;;;;;;;;;;5093974;28;20931;-73
2023/05/06 09:52:13;;;;;;;5.70;4.70;;;;;;;;;;5093610;28;20497;-73
2023/05/06 09:54:40;;;;;;;4.60;4.10;;;;;;;;;;5093744;28;20474;-73
2023/05/06 09:57:12;;;;;;;5.10;4.67;;;;;;;;;;5093766;28;20549;-74
2023/05/06 09:59:40;;;;;;;4.43;3.70;;;;;;;;;;5093642;28;20508;-74
2023/05/06 10:02:09;;;;;;;4.83;4.10;;;;;;;;;;5093597;28;20475;-73
2023/05/06 10:04:37;;;;;;;4.00;3.70;;;;;;;;;;5093334;28;20842;-73
2023/05/06 10:07:04;;;;;;;6.40;5.73;;;;;;;;;;5093113;28;20458;-73
2023/05/06 10:09:32;;;;;;;5.17;4.40;;;;;;;;;;5093485;28;20458;-73
2023/05/06 10:11:59;;;;;;;4.00;3.70;;;;;;;;;;5093363;28;20481;-73
2023/05/06 10:14:26;;;;;;;5.10;3.57;;;;;;;;;;5093133;28;20459;-73
2023/05/06 10:16:54;;;;;;;5.47;4.87;;;;;;;;;;5093539;28;20473;-73
2023/05/06 10:19:24;;;;;;;4.13;3.73;;;;;;;;;;5093219;28;20462;-73
2023/05/06 10:21:55;;;;;;;6.10;4.03;;;;;;;;;;5092780;28;20970;-72
2023/05/06 10:24:24;;;;;;;4.00;3.70;;;;;;;;;;5093030;28;20460;-73
2023/05/06 10:26:54;;;;;;;3.90;3.50;;;;;;;;;;5093463;28;20442;-73
2023/05/06 10:29:21;;;;;;;5.10;4.20;;;;;;;;;;5093542;28;20458;-73
2023/05/06 10:31:49;;;;;;;4.30;3.90;;;;;;;;;;5093085;28;20490;-73
2023/05/06 10:34:18;;;;;;;3.83;3.20;;;;;;;;;;5092909;28;20477;-73
2023/05/06 10:36:48;;;;;;;3.47;3.17;;;;;;;;;;5093249;28;20818;-73
2023/05/06 10:39:15;;;;;;;6.83;3.60;;;;;;;;;;5093040;28;20458;-74
2023/05/06 10:41:42;;;;;;;4.23;3.40;;;;;;;;;;5093180;28;20457;-74
2023/05/06 10:44:10;;;;;;;4.57;3.20;;;;;;;;;;5092769;28;20936;-73
2023/05/06 10:46:57;;;;;;;4.23;3.43;;;;;;;;;;5092940;28;21029;-74
2023/05/06 10:49:24;;;;;;;4.23;3.83;;;;;;;;;;5092917;28;20594;-73
2023/05/06 10:52:10;;;;;;;4.87;3.80;;;;;;;;;;5092851;28;20491;-73
2023/05/06 10:54:47;;;;;;;3.37;3.07;;;;;;;;;;5092681;28;20504;-73
2023/05/06 10:57:14;;;;;;;5.00;3.40;;;;;;;;;;5093114;28;20446;-74
2023/05/06 10:59:46;;;;;;;3.80;3.40;;;;;;;;;;5092870;28;20822;-73
2023/05/06 11:02:13;;;;;;;3.57;3.27;;;;;;;;;;5092837;28;20634;-73
2023/05/06 11:04:40;;;;;;;5.80;3.80;;;;;;;;;;5092706;28;20450;-73
2023/05/06 11:07:10;;;;;;;5.70;3.60;;;;;;;;;;5092860;28;20450;-73
2023/05/06 11:09:52;;;;;;;4.77;3.87;;;;;;;;;;5092895;28;20450;-73
2023/05/06 11:12:20;;;;;;;3.70;3.40;;;;;;;;;;5092541;28;20902;-73
2023/05/06 11:14:48;;;;;;;4.20;3.33;;;;;;;;;;5092610;28;20459;-73
2023/05/06 11:17:30;;;;;;;3.70;3.40;;;;;;;;;;5092664;28;20477;-74
2023/05/06 11:20:12;;;;;;;3.40;3.10;;;;;;;;;;5095018;28;20451;-73
2023/05/06 11:22:41;;;;;;;4.50;3.60;;;;;;;;;;5096048;28;20467;-74
2023/05/06 11:25:08;;;;;;;4.17;3.77;;;;;;;;;;5096426;28;20450;-73
2023/05/06 11:27:35;;;;;;;4.03;3.30;;;;;;;;;;5096542;28;20942;-73
2023/05/06 11:30:03;;;;;;;4.23;3.80;;;;;;;;;;5096583;28;20847;-73
2023/05/06 11:32:30;;;;;;;4.03;3.63;;;;;;;;;;5096301;28;20518;-73
2023/05/06 11:34:57;;;;;;;14.23;6.27;;;;;;;;;;5096637;28;20861;-74
2023/05/06 11:37:25;;;;;;;2.93;2.60;;;;;;;;;;5096239;28;20466;-74
2023/05/06 11:39:54;;;;;;;4.03;2.30;;;;;;;;;;5096478;28;20520;-74
2023/05/06 11:42:24;;;;;;;2.50;2.30;;;;;;;;;;5096247;28;20527;-74
2023/05/06 11:44:53;;;;;;;2.47;2.20;;;;;;;;;;5095894;28;20507;-74
2023/05/06 11:47:21;;;;;;;2.60;2.40;;;;;;;;;;5096250;28;20482;-74
2023/05/06 11:49:51;;;;;;;3.00;2.33;;;;;;;;;;5096225;28;20465;-74
2023/05/06 11:52:19;;;;;;;3.30;2.17;;;;;;;;;;5095899;28;20490;-74
2023/05/06 11:54:47;;;;;;;2.10;1.77;;;;;;;;;;5096086;28;20455;-74
2023/05/06 11:57:15;;;;;;;5.17;2.50;;;;;;;;;;5096040;28;21073;-74
2023/05/06 11:59:42;;;;;;;4.50;2.47;;;;;;;;;;5096033;28;20462;-74
2023/05/06 12:02:11;;;;;;;2.93;2.70;;;;;;;;;;5095865;28;20466;-74
2023/05/06 12:04:38;;;;;;;4.30;2.70;;;;;;;;;;5095827;28;20549;-73
2023/05/06 12:07:06;;;;;;;3.30;2.80;;;;;;;;;;5095975;28;20474;-74
2023/05/06 12:09:34;;;;;;;5.20;2.80;;;;;;;;;;5095791;28;20819;-74
2023/05/06 12:12:02;;;;;;;6.70;2.47;;;;;;;;;;5095571;28;20520;-74
2023/05/06 12:14:30;;;;;;;2.90;2.70;;;;;;;;;;5095440;28;20493;-74
2023/05/06 12:16:58;;;;;;;2.57;2.10;;;;;;;;;;5095523;28;20450;-74
2023/05/06 12:19:25;;;;;;;2.57;2.37;;;;;;;;;;5095526;28;20454;-74
2023/05/06 12:21:52;;;;;;;2.80;2.53;;;;;;;;;;5094960;28;20454;-74
2023/05/06 12:24:27;;;;;;;4.07;3.00;;;;;;;;;;5095161;28;20446;-74
2023/05/06 12:26:55;;;;;;;3.80;3.00;;;;;;;;;;5095632;28;20872;-74
2023/05/06 12:29:22;;;;;;;3.17;2.87;;;;;;;;;;5095204;28;20491;-74
2023/05/06 12:32:07;;;;;;;3.50;2.80;;;;;;;;;;5094877;28;20454;-74
2023/05/06 12:34:37;;;;;;;2.50;2.30;;;;;;;;;;5095037;28;20470;-74
2023/05/06 12:37:05;;;;;;;3.93;3.00;;;;;;;;;;5095178;28;20459;-74
2023/05/06 12:39:35;;;;;;;3.17;2.07;;;;;;;;;;5095215;28;20450;-74
2023/05/06 12:42:02;;;;;;;6.20;1.90;;;;;;;;;;5095275;28;20501;-74
2023/05/06 12:44:32;;;;;;;2.13;1.93;;;;;;;;;;5094933;28;20887;-74
2023/05/06 12:47:01;;;;;;;2.50;1.93;;;;;;;;;;5094937;28;20560;-74
2023/05/06 12:49:28;;;;;;;4.00;2.33;;;;;;;;;;5094870;28;20450;-74
2023/05/06 12:52:06;;;;;;;3.80;2.17;;;;;;;;;;5094808;28;20459;-74
2023/05/06 12:54:33;;;;;;;2.67;1.90;;;;;;;;;;5094594;28;20455;-74
2023/05/06 12:57:00;;;;;;;4.00;1.90;;;;;;;;;;5094947;28;20450;-74
2023/05/06 12:59:27;;;;;;;3.93;2.03;;;;;;;;;;5094889;28;20469;-74
2023/05/06 13:01:54;;;;;;;2.57;2.17;;;;;;;;;;5094707;28;20462;-74
2023/05/06 13:04:23;;;;;;;2.57;2.37;;;;;;;;;;5094556;28;20477;-74
2023/05/06 13:06:50;;;;;;;2.37;2.13;;;;;;;;;;5094872;28;20454;-74
2023/05/06 13:09:18;;;;;;;2.73;2.53;;;;;;;;;;5094734;28;20478;-74
2023/05/06 13:11:45;;;;;;;2.97;1.70;;;;;;;;;;5094603;28;20951;-74
2023/05/06 13:14:12;;;;;;;2.90;2.27;;;;;;;;;;5094197;28;20494;-74
2023/05/06 13:16:40;;;;;;;3.93;2.13;;;;;;;;;;5094583;28;20885;-74
2023/05/06 13:19:08;;;;;;;2.73;2.10;;;;;;;;;;5094690;28;20456;-74
2023/05/06 13:21:37;;;;;;;3.20;2.30;;;;;;;;;;5094203;28;20877;-74
2023/05/06 13:24:05;;;;;;;4.30;2.67;;;;;;;;;;5093661;28;20524;-74
2023/05/06 13:26:32;;;;;;;3.67;2.10;;;;;;;;;;5094459;28;20458;-74
2023/05/06 13:28:59;;;;;;;2.40;2.00;;;;;;;;;;5094360;28;20457;-74
2023/05/06 13:31:27;;;;;;;2.53;2.33;;;;;;;;;;5094262;28;20954;-74
2023/05/06 13:33:54;;;;;;;2.10;1.90;;;;;;;;;;5094120;28;21068;-74
2023/05/06 13:36:22;;;;;;;3.40;2.10;;;;;;;;;;5094035;28;20482;-74
2023/05/06 13:38:50;;;;;;;3.37;2.30;;;;;;;;;;5094182;28;20454;-74
2023/05/06 13:41:18;;;;;;;2.57;2.33;;;;;;;;;;5093711;28;20459;-73
2023/05/06 13:43:45;;;;;;;2.50;2.07;;;;;;;;;;5093409;28;21005;-73
2023/05/06 13:46:12;;;;;;;3.43;2.33;;;;;;;;;;5093991;28;20823;-74
2023/05/06 13:48:39;;;;;;;4.00;2.10;;;;;;;;;;5093841;28;20517;-74
2023/05/06 13:51:06;;;;;;;4.53;2.47;;;;;;;;;;5093924;28;20450;-74
2023/05/06 13:53:34;;;;;;;2.40;2.20;;;;;;;;;;5093479;28;20495;-73
2023/05/06 13:56:02;;;;;;;4.87;2.43;;;;;;;;;;5093750;28;20497;-73
2023/05/06 13:58:29;;;;;;;2.30;2.10;;;;;;;;;;5093643;28;20462;-73
2023/05/06 14:00:57;;;;;;;2.27;2.07;;;;;;;;;;5093853;28;20462;-73
2023/05/06 14:03:24;;;;;;;5.30;2.50;;;;;;;;;;5093575;28;20470;-73
2023/05/06 14:05:51;;;;;;;3.27;2.23;;;;;;;;;;5093751;28;20455;-73
2023/05/06 14:08:18;;;;;;;3.33;2.60;;;;;;;;;;5093576;28;20450;-74
2023/05/06 14:10:46;;;;;;;4.30;2.87;;;;;;;;;;5093447;28;20453;-73
2023/05/06 14:13:14;;;;;;;3.70;2.53;;;;;;;;;;5093287;28;20499;-73
2023/05/06 14:15:41;;;;;;;3.10;2.80;;;;;;;;;;5093202;28;20545;-73
2023/05/06 14:18:08;;;;;;;5.93;2.50;;;;;;;;;;5093482;28;20454;-74
2023/05/06 14:20:35;;;;;;;5.80;2.80;;;;;;;;;;5093331;28;20454;-74
2023/05/06 14:23:05;;;;;;;3.30;2.67;;;;;;;;;;5092530;28;20478;-73
2023/05/06 14:25:32;;;;;;;3.53;3.03;;;;;;;;;;5093347;28;20545;-73
2023/05/06 14:27:59;;;;;;;4.07;2.83;;;;;;;;;;5093391;28;20457;-73
2023/05/06 14:30:27;;;;;;;2.83;2.60;;;;;;;;;;5093165;28;20455;-73
2023/05/06 14:32:55;;;;;;;4.00;2.83;;;;;;;;;;5093191;28;20852;-73
2023/05/06 14:35:22;;;;;;;4.07;2.67;;;;;;;;;;5092943;28;20454;-73
2023/05/06 14:37:49;;;;;;;8.73;3.13;;;;;;;;;;5093270;28;20450;-73
2023/05/06 14:40:16;;;;;;;3.53;3.20;;;;;;;;;;5093066;28;21040;-73
2023/05/06 14:42:44;;;;;;;5.73;2.77;;;;;;;;;;5092942;28;20498;-73
2023/05/06 14:45:12;;;;;;;3.70;3.33;;;;;;;;;;5092780;28;20502;-73
2023/05/06 14:47:41;;;;;;;2.60;2.40;;;;;;;;;;5093100;28;20451;-74